Time;durP1;ratioP1;P1;durP2;ratioP2;P2;SDS_P1;SDS_P2;PMS_P1;PMS_P2;Temp;Humidity;BMP_temperature;BMP_pressure;BME280_temperature;BME280_humidity;BME280_pressure;Samples;Min_cycle;Max_cycle;Signal;HPM_P1;HPM_P2
2024/01/25 00:00:38;;;;;;;;;;;;;;;;;;5094003;28;1078;-60
2024/01/25 00:03:03;;;;;;;;;;;;;;;;;;5093719;28;977;-60
2024/01/25 00:05:28;;;;;;;;;;;;;;;;;;5093491;28;895;-61
2024/01/25 00:07:54;;;;;;;;;;;;;;;;;;5093485;28;837;-60
2024/01/25 00:10:19;;;;;;;;;;;;;;;;;;5093337;28;970;-62
2024/01/25 00:12:44;;;;;;;;;;;;;;;;;;5093518;28;825;-60
2024/01/25 00:15:10;;;;;;;;;;;;;;;;;;5093237;28;1046;-60
2024/01/25 00:17:35;;;;;;;;;;;;;;;;;;5093472;28;1957;-60
2024/01/25 00:20:00;;;;;;;;;;;;;;;;;;5093291;28;995;-60
2024/01/25 00:22:26;;;;;;;;;;;;;;;;;;5093256;28;999;-60
2024/01/25 00:24:51;;;;;;;;;;;;;;;;;;5093272;28;1186;-60
2024/01/25 00:27:16;;;;;;;;;;;;;;;;;;5093049;28;1006;-60
2024/01/25 00:29:41;;;;;;;;;;;;;;;;;;5074672;28;1265;-60
2024/01/25 00:32:06;;;;;;;;;;;;;;;;;;5093087;28;820;-60
2024/01/25 00:34:32;;;;;;;;;;;;;;;;;;5093292;28;987;-60
2024/01/25 00:36:57;;;;;;;;;;;;;;;;;;5092942;28;844;-60
2024/01/25 00:39:23;;;;;;;;;;;;;;;;;;5093362;28;876;-61
2024/01/25 00:41:50;;;;;;;;;;;;;;;;;;5093318;28;923;-60
2024/01/25 00:44:15;;;;;;;;;;;;;;;;;;5093634;28;911;-60
2024/01/25 00:46:41;;;;;;;;;;;;;;;;;;5093170;28;881;-60
2024/01/25 00:49:06;;;;;;;;;;;;;;;;;;5092972;28;1630;-60
2024/01/25 00:51:32;;;;;;;;;;;;;;;;;;5095521;28;1045;-60
2024/01/25 00:53:57;;;;;;;;;;;;;;;;;;5097105;28;1003;-60
2024/01/25 00:56:22;;;;;;;;;;;;;;;;;;5085456;28;936;-60
2024/01/25 00:58:48;;;;;;;;;;;;;;;;;;5096794;28;1906;-60
2024/01/25 01:01:13;;;;;;;;;;;;;;;;;;5097001;28;825;-60
2024/01/25 01:03:39;;;;;;;;;;;;;;;;;;5097060;28;863;-60
2024/01/25 01:06:04;;;;;;;;;;;;;;;;;;5095683;28;839;-60
2024/01/25 01:08:29;;;;;;;;;;;;;;;;;;5096529;28;1192;-60
2024/01/25 01:10:55;;;;;;;;;;;;;;;;;;5096658;28;952;-60
2024/01/25 01:13:20;;;;;;;;;;;;;;;;;;5096838;28;805;-60
2024/01/25 01:15:45;;;;;;;;;;;;;;;;;;5096569;28;871;-59
2024/01/25 01:18:11;;;;;;;;;;;;;;;;;;5097128;28;1906;-60
2024/01/25 01:20:36;;;;;;;;;;;;;;;;;;5095861;28;982;-60
2024/01/25 01:23:01;;;;;;;;;;;;;;;;;;5095268;28;864;-60
2024/01/25 01:25:26;;;;;;;;;;;;;;;;;;5096233;28;785;-60
2024/01/25 01:27:51;;;;;;;;;;;;;;;;;;5096145;28;825;-59
2024/01/25 01:30:17;;;;;;;;;;;;;;;;;;5096194;28;868;-60
2024/01/25 01:32:42;;;;;;;;;;;;;;;;;;5096191;28;919;-61
2024/01/25 01:35:07;;;;;;;;;;;;;;;;;;5096621;28;1022;-61
2024/01/25 01:37:32;;;;;;;;;;;;;;;;;;5096149;28;1977;-60
2024/01/25 01:39:58;;;;;;;;;;;;;;;;;;5096465;28;878;-61
2024/01/25 01:42:24;;;;;;;;;;;;;;;;;;5096646;28;1055;-60
2024/01/25 01:44:50;;;;;;;;;;;;;;;;;;5095190;28;907;-60
2024/01/25 01:47:15;;;;;;;;;;;;;;;;;;5095897;28;1002;-60
2024/01/25 01:49:40;;;;;;;;;;;;;;;;;;5096190;28;849;-60
2024/01/25 01:52:06;;;;;;;;;;;;;;;;;;5096124;28;970;-61
2024/01/25 01:54:32;;;;;;;;;;;;;;;;;;5096169;28;903;-60
2024/01/25 01:56:57;;;;;;;;;;;;;;;;;;5095956;28;951;-60
2024/01/25 01:59:25;;;;;;;;;;;;;;;;;;5096069;28;1905;-60
2024/01/25 02:01:50;;;;;;;;;;;;;;;;;;5095507;28;912;-60
2024/01/25 02:04:15;;;;;;;;;;;;;;;;;;5095158;28;911;-60
2024/01/25 02:06:42;;;;;;;;;;;;;;;;;;5096023;28;990;-60
2024/01/25 02:09:07;;;;;;;;;;;;;;;;;;5095803;28;1004;-60
2024/01/25 02:11:32;;;;;;;;;;;;;;;;;;5095086;28;1162;-60
2024/01/25 02:13:58;;;;;;;;;;;;;;;;;;5092974;28;1352;-60
2024/01/25 02:16:23;;;;;;;;;;;;;;;;;;5093480;28;1194;-60
2024/01/25 02:18:49;;;;;;;;;;;;;;;;;;5093175;28;1969;-60
2024/01/25 02:21:14;;;;;;;;;;;;;;;;;;5093808;28;1131;-60
2024/01/25 02:23:40;;;;;;;;;;;;;;;;;;5095711;28;1038;-59
2024/01/25 02:26:05;;;;;;;;;;;;;;;;;;5095769;28;974;-60
2024/01/25 02:28:30;;;;;;;;;;;;;;;;;;5095540;28;1030;-60
2024/01/25 02:30:55;;;;;;;;;;;;;;;;;;5095128;28;904;-60
2024/01/25 02:33:20;;;;;;;;;;;;;;;;;;5095109;28;832;-59
2024/01/25 02:35:46;;;;;;;;;;;;;;;;;;5095121;28;817;-60
2024/01/25 02:38:11;;;;;;;;;;;;;;;;;;5094974;28;1965;-60
2024/01/25 02:40:36;;;;;;;;;;;;;;;;;;5095249;28;919;-60
2024/01/25 02:43:01;;;;;;;;;;;;;;;;;;5095230;28;832;-60
2024/01/25 02:45:27;;;;;;;;;;;;;;;;;;5094787;28;978;-60
2024/01/25 02:47:52;;;;;;;;;;;;;;;;;;5094922;28;808;-61
2024/01/25 02:50:17;;;;;;;;;;;;;;;;;;5094641;28;863;-61
2024/01/25 02:52:43;;;;;;;;;;;;;;;;;;5094575;28;950;-61
2024/01/25 02:55:08;;;;;;;;;;;;;;;;;;5094835;28;943;-61
2024/01/25 02:57:33;;;;;;;;;;;;;;;;;;5114464;28;1971;-61
2024/01/25 02:59:58;;;;;;;;;;;;;;;;;;5114922;28;994;-61
2024/01/25 03:02:24;;;;;;;;;;;;;;;;;;5115090;28;819;-61
2024/01/25 03:04:49;;;;;;;;;;;;;;;;;;5114993;28;887;-61
2024/01/25 03:07:14;;;;;;;;;;;;;;;;;;5113424;28;714;-61
2024/01/25 03:09:39;;;;;;;;;;;;;;;;;;5113634;28;1029;-60
2024/01/25 03:12:05;;;;;;;;;;;;;;;;;;5114891;28;895;-60
2024/01/25 03:14:30;;;;;;;;;;;;;;;;;;5113980;28;1118;-61
2024/01/25 03:16:55;;;;;;;;;;;;;;;;;;5114881;28;840;-60
2024/01/25 03:19:23;;;;;;;;;;;;;;;;;;5114566;28;1918;-60
2024/01/25 03:21:48;;;;;;;;;;;;;;;;;;5114962;28;1014;-60
2024/01/25 03:24:13;;;;;;;;;;;;;;;;;;5114492;28;957;-60
2024/01/25 03:26:39;;;;;;;;;;;;;;;;;;5114591;28;922;-61
2024/01/25 03:29:04;;;;;;;;;;;;;;;;;;5114855;28;892;-61
2024/01/25 03:31:29;;;;;;;;;;;;;;;;;;5114870;28;864;-60
2024/01/25 03:33:54;;;;;;;;;;;;;;;;;;5114774;28;907;-60
2024/01/25 03:36:20;;;;;;;;;;;;;;;;;;5114451;28;907;-60
2024/01/25 03:38:45;;;;;;;;;;;;;;;;;;5114631;28;1905;-60
2024/01/25 03:41:10;;;;;;;;;;;;;;;;;;5114708;28;864;-61
2024/01/25 03:43:36;;;;;;;;;;;;;;;;;;5114792;28;863;-60
2024/01/25 03:46:01;;;;;;;;;;;;;;;;;;5114669;28;994;-60
2024/01/25 03:48:26;;;;;;;;;;;;;;;;;;5114628;28;880;-60
2024/01/25 03:50:56;;;;;;;;;;;;;;;;;;5114455;28;796;-61
2024/01/25 03:53:21;;;;;;;;;;;;;;;;;;5114900;28;828;-61
2024/01/25 03:55:48;;;;;;;;;;;;;;;;;;5114583;28;993;-61
2024/01/25 03:58:13;;;;;;;;;;;;;;;;;;5114466;28;1977;-61
2024/01/25 04:00:38;;;;;;;;;;;;;;;;;;5114783;28;923;-61
2024/01/25 04:03:04;;;;;;;;;;;;;;;;;;5114269;28;927;-60
2024/01/25 04:05:29;;;;;;;;;;;;;;;;;;5113457;28;808;-61
2024/01/25 04:07:54;;;;;;;;;;;;;;;;;;5114095;28;1025;-60
2024/01/25 04:10:20;;;;;;;;;;;;;;;;;;5113905;28;867;-61
2024/01/25 04:12:45;;;;;;;;;;;;;;;;;;5113780;28;833;-61
2024/01/25 04:15:10;;;;;;;;;;;;;;;;;;5113909;28;974;-61
2024/01/25 04:17:35;;;;;;;;;;;;;;;;;;5113881;28;1905;-61
2024/01/25 04:20:01;;;;;;;;;;;;;;;;;;5114296;28;864;-61
2024/01/25 04:22:26;;;;;;;;;;;;;;;;;;5113466;28;828;-61
2024/01/25 04:24:51;;;;;;;;;;;;;;;;;;5112261;28;1150;-61
2024/01/25 04:27:16;;;;;;;;;;;;;;;;;;5117687;28;943;-61
2024/01/25 04:29:42;;;;;;;;;;;;;;;;;;5118693;28;938;-60
2024/01/25 04:32:08;;;;;;;;;;;;;;;;;;5118116;28;890;-60
2024/01/25 04:34:33;;;;;;;;;;;;;;;;;;5118021;28;914;-61
2024/01/25 04:36:58;;;;;;;;;;;;;;;;;;5117874;28;1227;-61
2024/01/25 04:39:23;;;;;;;;;;;;;;;;;;5117616;28;1898;-60
2024/01/25 04:41:49;;;;;;;;;;;;;;;;;;5117481;27;903;-61
2024/01/25 04:44:14;;;;;;;;;;;;;;;;;;5117617;28;927;-61
2024/01/25 04:46:40;;;;;;;;;;;;;;;;;;5117341;28;958;-61
2024/01/25 04:49:05;;;;;;;;;;;;;;;;;;5117937;28;827;-61
2024/01/25 04:51:30;;;;;;;;;;;;;;;;;;5117913;28;1018;-60
2024/01/25 04:53:55;;;;;;;;;;;;;;;;;;5117553;28;828;-60
2024/01/25 04:56:21;;;;;;;;;;;;;;;;;;5117185;28;994;-60
2024/01/25 04:58:46;;;;;;;;;;;;;;;;;;5117400;28;1956;-60
2024/01/25 05:01:11;;;;;;;;;;;;;;;;;;5117532;28;911;-61
2024/01/25 05:03:36;;;;;;;;;;;;;;;;;;5117185;28;970;-61
2024/01/25 05:06:02;;;;;;;;;;;;;;;;;;5117881;28;801;-61
2024/01/25 05:08:27;;;;;;;;;;;;;;;;;;5117312;28;888;-62
2024/01/25 05:10:52;;;;;;;;;;;;;;;;;;5117534;27;856;-61
2024/01/25 05:13:18;;;;;;;;;;;;;;;;;;5115682;28;1318;-61
2024/01/25 05:15:43;;;;;;;;;;;;;;;;;;5117357;28;852;-61
2024/01/25 05:18:09;;;;;;;;;;;;;;;;;;5116944;27;1901;-61
2024/01/25 05:20:36;;;;;;;;;;;;;;;;;;5117163;28;986;-61
2024/01/25 05:23:02;;;;;;;;;;;;;;;;;;5117813;27;820;-61
2024/01/25 05:25:28;;;;;;;;;;;;;;;;;;5116167;28;848;-61
2024/01/25 05:27:54;;;;;;;;;;;;;;;;;;5114074;28;1166;-61
2024/01/25 05:30:19;;;;;;;;;;;;;;;;;;5114625;27;1143;-61
2024/01/25 05:32:45;;;;;;;;;;;;;;;;;;5114158;28;1127;-61
2024/01/25 05:35:11;;;;;;;;;;;;;;;;;;5099194;28;1234;-61
2024/01/25 05:37:36;;;;;;;;;;;;;;;;;;5101639;28;1882;-61
2024/01/25 05:40:01;;;;;;;;;;;;;;;;;;5114843;28;1222;-61
2024/01/25 05:42:26;;;;;;;;;;;;;;;;;;5096559;28;1135;-61
2024/01/25 05:44:52;;;;;;;;;;;;;;;;;;5094299;28;1191;-61
2024/01/25 05:47:17;;;;;;;;;;;;;;;;;;5110659;28;1131;-61
2024/01/25 05:49:42;;;;;;;;;;;;;;;;;;5114143;28;1197;-61
2024/01/25 05:52:07;;;;;;;;;;;;;;;;;;5115030;28;1143;-61
2024/01/25 05:54:33;;;;;;;;;;;;;;;;;;5116453;28;882;-61
2024/01/25 05:56:58;;;;;;;;;;;;;;;;;;5115923;28;971;-61
2024/01/25 05:59:23;;;;;;;;;;;;;;;;;;5116178;28;1914;-61
2024/01/25 06:01:48;;;;;;;;;;;;;;;;;;5116202;28;813;-61
2024/01/25 06:04:14;;;;;;;;;;;;;;;;;;5116220;28;942;-61
2024/01/25 06:06:39;;;;;;;;;;;;;;;;;;5116034;28;962;-61
2024/01/25 06:09:05;;;;;;;;;;;;;;;;;;5116311;28;824;-61
2024/01/25 06:11:31;;;;;;;;;;;;;;;;;;5116619;28;911;-61
2024/01/25 06:13:56;;;;;;;;;;;;;;;;;;5115751;28;841;-61
2024/01/25 06:16:22;;;;;;;;;;;;;;;;;;5115624;28;864;-61
2024/01/25 06:18:47;;;;;;;;;;;;;;;;;;5114690;28;1963;-61
2024/01/25 06:21:12;;;;;;;;;;;;;;;;;;5116187;28;972;-60
2024/01/25 06:23:38;;;;;;;;;;;;;;;;;;5115491;28;1073;-61
2024/01/25 06:26:04;;;;;;;;;;;;;;;;;;5115808;28;820;-61
2024/01/25 06:28:29;;;;;;;;;;;;;;;;;;5115486;28;868;-61
2024/01/25 06:30:54;;;;;;;;;;;;;;;;;;5115880;28;943;-61
2024/01/25 06:33:20;;;;;;;;;;;;;;;;;;5115942;27;807;-61
2024/01/25 06:35:45;;;;;;;;;;;;;;;;;;5116030;28;901;-61
2024/01/25 06:38:10;;;;;;;;;;;;;;;;;;5115817;28;1950;-60
2024/01/25 06:40:35;;;;;;;;;;;;;;;;;;5115603;28;864;-60
2024/01/25 06:43:01;;;;;;;;;;;;;;;;;;5115687;28;945;-61
2024/01/25 06:45:26;;;;;;;;;;;;;;;;;;5115399;28;816;-61
2024/01/25 06:47:51;;;;;;;;;;;;;;;;;;5115777;28;851;-60
2024/01/25 06:50:17;;;;;;;;;;;;;;;;;;5115230;28;844;-61
2024/01/25 06:52:42;;;;;;;;;;;;;;;;;;5115351;28;978;-61
2024/01/25 06:55:07;;;;;;;;;;;;;;;;;;5115183;28;1016;-61
2024/01/25 06:57:32;;;;;;;;;;;;;;;;;;5115257;28;1960;-61
2024/01/25 06:59:58;;;;;;;;;;;;;;;;;;5115243;28;1033;-61
2024/01/25 07:02:24;;;;;;;;;;;;;;;;;;5113706;28;911;-61
2024/01/25 07:04:52;;;;;;;;;;;;;;;;;;5115529;28;816;-61
2024/01/25 07:07:17;;;;;;;;;;;;;;;;;;5115286;28;832;-61
2024/01/25 07:09:43;;;;;;;;;;;;;;;;;;5114587;28;1186;-61
2024/01/25 07:12:08;;;;;;;;;;;;;;;;;;5115014;28;962;-60
2024/01/25 07:14:33;;;;;;;;;;;;;;;;;;5115453;28;973;-60
2024/01/25 07:16:58;;;;;;;;;;;;;;;;;;5114847;28;895;-61
2024/01/25 07:19:24;;;;;;;;;;;;;;;;;;5115239;28;1897;-60
2024/01/25 07:21:49;;;;;;;;;;;;;;;;;;5115227;28;813;-60
2024/01/25 07:24:15;;;;;;;;;;;;;;;;;;5114690;28;824;-60
2024/01/25 07:26:40;;;;;;;;;;;;;;;;;;5114433;28;838;-61
2024/01/25 07:29:05;;;;;;;;;;;;;;;;;;5114479;28;816;-61
2024/01/25 07:31:30;;;;;;;;;;;;;;;;;;5114269;28;880;-61
2024/01/25 07:33:56;;;;;;;;;;;;;;;;;;5114468;28;891;-61
2024/01/25 07:36:21;;;;;;;;;;;;;;;;;;5114192;28;850;-60
2024/01/25 07:38:47;;;;;;;;;;;;;;;;;;5114118;28;1964;-60
2024/01/25 07:41:12;;;;;;;;;;;;;;;;;;5113891;28;912;-61
2024/01/25 07:43:37;;;;;;;;;;;;;;;;;;5114108;27;922;-60
2024/01/25 07:46:03;;;;;;;;;;;;;;;;;;5114409;28;1010;-61
2024/01/25 07:48:28;;;;;;;;;;;;;;;;;;5113774;28;900;-61
2024/01/25 07:50:53;;;;;;;;;;;;;;;;;;5113858;28;828;-61
2024/01/25 07:53:18;;;;;;;;;;;;;;;;;;5113604;28;812;-60
2024/01/25 07:55:43;;;;;;;;;;;;;;;;;;5113561;28;914;-61
2024/01/25 07:58:09;;;;;;;;;;;;;;;;;;5113833;28;1960;-61
2024/01/25 08:00:34;;;;;;;;;;;;;;;;;;5113152;27;884;-61
2024/01/25 08:02:59;;;;;;;;;;;;;;;;;;5113985;28;832;-61
2024/01/25 08:05:25;;;;;;;;;;;;;;;;;;5113698;28;979;-61
2024/01/25 08:07:50;;;;;;;;;;;;;;;;;;5113539;28;908;-61
2024/01/25 08:10:16;;;;;;;;;;;;;;;;;;5113719;28;876;-60
2024/01/25 08:12:43;;;;;;;;;;;;;;;;;;5114016;28;767;-60
2024/01/25 08:15:09;;;;;;;;;;;;;;;;;;5113431;28;847;-60
2024/01/25 08:17:36;;;;;;;;;;;;;;;;;;5113530;28;1960;-61
2024/01/25 08:20:01;;;;;;;;;;;;;;;;;;5113526;28;852;-61
2024/01/25 08:22:26;;;;;;;;;;;;;;;;;;5113440;28;942;-61
2024/01/25 08:24:51;;;;;;;;;;;;;;;;;;5113325;28;737;-61
2024/01/25 08:27:16;;;;;;;;;;;;;;;;;;5113567;28;978;-60
2024/01/25 08:29:42;;;;;;;;;;;;;;;;;;5113573;28;887;-61
2024/01/25 08:32:08;;;;;;;;;;;;;;;;;;5112761;28;821;-59
2024/01/25 08:34:33;;;;;;;;;;;;;;;;;;5114130;28;816;-59
2024/01/25 08:36:58;;;;;;;;;;;;;;;;;;5113681;28;883;-60
2024/01/25 08:39:23;;;;;;;;;;;;;;;;;;5113555;28;1969;-60
2024/01/25 08:41:50;;;;;;;;;;;;;;;;;;5113795;28;899;-59
2024/01/25 08:44:15;;;;;;;;;;;;;;;;;;5113063;28;920;-59
2024/01/25 08:46:42;;;;;;;;;;;;;;;;;;5113395;28;1053;-59
2024/01/25 08:49:09;;;;;;;;;;;;;;;;;;5113397;28;899;-59
2024/01/25 08:51:34;;;;;;;;;;;;;;;;;;5113633;28;1216;-60
2024/01/25 08:54:00;;;;;;;;;;;;;;;;;;5113482;28;836;-60
2024/01/25 08:56:25;;;;;;;;;;;;;;;;;;5113537;28;931;-60
2024/01/25 08:58:52;;;;;;;;;;;;;;;;;;5113260;28;1980;-60
2024/01/25 09:01:17;;;;;;;;;;;;;;;;;;5113466;28;943;-60
2024/01/25 09:03:42;;;;;;;;;;;;;;;;;;5113648;28;816;-60
2024/01/25 09:06:08;;;;;;;;;;;;;;;;;;5113478;28;986;-59
2024/01/25 09:08:33;;;;;;;;;;;;;;;;;;5113663;28;832;-59
2024/01/25 09:10:58;;;;;;;;;;;;;;;;;;5113283;28;863;-59
2024/01/25 09:13:24;;;;;;;;;;;;;;;;;;5116907;28;944;-60
2024/01/25 09:15:49;;;;;;;;;;;;;;;;;;5117558;28;863;-60
2024/01/25 09:18:14;;;;;;;;;;;;;;;;;;5117170;28;1911;-59
2024/01/25 09:20:40;;;;;;;;;;;;;;;;;;5117450;28;801;-60
2024/01/25 09:23:06;;;;;;;;;;;;;;;;;;5117065;28;855;-59
2024/01/25 09:25:31;;;;;;;;;;;;;;;;;;5116592;28;900;-59
2024/01/25 09:27:57;;;;;;;;;;;;;;;;;;5116877;28;810;-59
2024/01/25 09:30:22;;;;;;;;;;;;;;;;;;5116644;28;836;-59
2024/01/25 09:32:48;;;;;;;;;;;;;;;;;;5117071;28;868;-59
2024/01/25 09:35:13;;;;;;;;;;;;;;;;;;5115681;28;1471;-59
2024/01/25 09:37:38;;;;;;;;;;;;;;;;;;5116981;28;1898;-59
2024/01/25 09:40:03;;;;;;;;;;;;;;;;;;5116982;28;911;-59
2024/01/25 09:42:29;;;;;;;;;;;;;;;;;;5116777;28;1226;-59
2024/01/25 09:44:54;;;;;;;;;;;;;;;;;;5116228;28;899;-60
2024/01/25 09:47:21;;;;;;;;;;;;;;;;;;5116645;28;895;-59
2024/01/25 09:49:46;;;;;;;;;;;;;;;;;;5116578;28;879;-59
2024/01/25 09:52:12;;;;;;;;;;;;;;;;;;5116725;27;959;-59
2024/01/25 09:54:37;;;;;;;;;;;;;;;;;;5116142;28;900;-58
2024/01/25 09:57:05;;;;;;;;;;;;;;;;;;5116681;28;997;-58
2024/01/25 09:59:31;;;;;;;;;;;;;;;;;;5116531;28;1910;-58
2024/01/25 10:01:56;;;;;;;;;;;;;;;;;;5116052;28;824;-59
2024/01/25 10:04:23;;;;;;;;;;;;;;;;;;5115741;28;816;-59
2024/01/25 10:06:48;;;;;;;;;;;;;;;;;;5115819;27;942;-59
2024/01/25 10:09:14;;;;;;;;;;;;;;;;;;5115972;28;835;-59
2024/01/25 10:11:39;;;;;;;;;;;;;;;;;;5116185;28;910;-59
2024/01/25 10:14:04;;;;;;;;;;;;;;;;;;5116343;28;875;-59
2024/01/25 10:16:30;;;;;;;;;;;;;;;;;;5116317;28;840;-59
2024/01/25 10:18:55;;;;;;;;;;;;;;;;;;5115500;28;1894;-59
2024/01/25 10:21:21;;;;;;;;;;;;;;;;;;5116185;28;883;-59
2024/01/25 10:23:47;;;;;;;;;;;;;;;;;;5115587;28;851;-58
2024/01/25 10:26:12;;;;;;;;;;;;;;;;;;5114285;28;1408;-59
2024/01/25 10:28:37;;;;;;;;;;;;;;;;;;5115695;28;1057;-59
2024/01/25 10:31:07;;;;;;;;;;;;;;;;;;5116496;28;863;-59
2024/01/25 10:33:33;;;;;;;;;;;;;;;;;;5116167;28;879;-59
2024/01/25 10:36:04;;;;;;;;;;;;;;;;;;5115587;28;808;-59
2024/01/25 10:38:31;;;;;;;;;;;;;;;;;;5114542;28;1945;-59
2024/01/25 10:40:57;;;;;;;;;;;;;;;;;;5115606;28;914;-59
2024/01/25 10:43:22;;;;;;;;;;;;;;;;;;5115473;28;903;-59
2024/01/25 10:45:47;;;;;;;;;;;;;;;;;;5113949;28;1643;-59
2024/01/25 10:48:13;;;;;;;;;;;;;;;;;;5113991;28;1599;-59
2024/01/25 10:50:39;;;;;;;;;;;;;;;;;;5115384;28;895;-59
2024/01/25 10:53:05;;;;;;;;;;;;;;;;;;5115181;28;835;-59
2024/01/25 10:55:31;;;;;;;;;;;;;;;;;;5114818;28;936;-60
2024/01/25 10:57:56;;;;;;;;;;;;;;;;;;5114857;28;1964;-59
2024/01/25 11:00:22;;;;;;;;;;;;;;;;;;5096391;28;1430;-59
2024/01/25 11:02:49;;;;;;;;;;;;;;;;;;5115672;28;843;-59
2024/01/25 11:05:15;;;;;;;;;;;;;;;;;;5115362;27;867;-59
2024/01/25 11:07:44;;;;;;;;;;;;;;;;;;5114625;28;1085;-59
2024/01/25 11:10:13;;;;;;;;;;;;;;;;;;5114773;28;842;-60
2024/01/25 11:12:51;;;;;;;;;;;;;;;;;;5115068;28;915;-59
2024/01/25 11:15:18;;;;;;;;;;;;;;;;;;5114414;28;856;-60
2024/01/25 11:17:50;;;;;;;;;;;;;;;;;;5114364;28;1956;-60
2024/01/25 11:20:15;;;;;;;;;;;;;;;;;;5114766;28;1003;-60
2024/01/25 11:22:44;;;;;;;;;;;;;;;;;;5114644;28;832;-60
2024/01/25 11:25:28;;;;;;;;;;;;;;;;;;5113373;28;1002;-59
2024/01/25 11:27:54;;;;;;;;;;;;;;;;;;5114233;28;852;-59
2024/01/25 11:30:20;;;;;;;;;;;;;;;;;;5114250;28;867;-59
2024/01/25 11:32:48;;;;;;;;;;;;;;;;;;5113535;28;872;-60
2024/01/25 11:35:16;;;;;;;;;;;;;;;;;;5110313;28;2859;-59
2024/01/25 11:37:53;;;;;;;;;;;;;;;;;;5112918;28;1951;-59
2024/01/25 11:40:20;;;;;;;;;;;;;;;;;;5113016;27;816;-59
2024/01/25 11:42:48;;;;;;;;;;;;;;;;;;5112876;28;1283;-59
2024/01/25 11:45:14;;;;;;;;;;;;;;;;;;5112836;28;868;-60
2024/01/25 11:47:40;;;;;;;;;;;;;;;;;;5112370;28;1599;-59
2024/01/25 11:50:06;;;;;;;;;;;;;;;;;;5114232;28;871;-59
2024/01/25 11:52:33;;;;;;;;;;;;;;;;;;5114218;28;802;-59
2024/01/25 11:54:58;;;;;;;;;;;;;;;;;;5113578;27;588;-60
2024/01/25 11:57:24;;;;;;;;;;;;;;;;;;5112439;28;968;-59
2024/01/25 11:59:49;;;;;;;;;;;;;;;;;;5113671;28;1964;-59
2024/01/25 12:02:15;;;;;;;;;;;;;;;;;;5113698;28;840;-60
2024/01/25 12:04:40;;;;;;;;;;;;;;;;;;5113867;28;894;-59
2024/01/25 12:07:05;;;;;;;;;;;;;;;;;;5113984;28;931;-59
2024/01/25 12:09:31;;;;;;;;;;;;;;;;;;5113978;28;828;-59
2024/01/25 12:11:56;;;;;;;;;;;;;;;;;;5112254;28;1217;-60
2024/01/25 12:14:23;;;;;;;;;;;;;;;;;;5113194;28;1060;-59
2024/01/25 12:16:49;;;;;;;;;;;;;;;;;;5113597;28;975;-59
2024/01/25 12:19:14;;;;;;;;;;;;;;;;;;5113507;28;1954;-59
2024/01/25 12:21:43;;;;;;;;;;;;;;;;;;5112684;28;1291;-59
2024/01/25 12:24:09;;;;;;;;;;;;;;;;;;5112960;28;1192;-59
2024/01/25 12:26:37;;;;;;;;;;;;;;;;;;5113708;28;903;-59
2024/01/25 12:29:03;;;;;;;;;;;;;;;;;;5114080;28;848;-59
2024/01/25 12:31:28;;;;;;;;;;;;;;;;;;5113847;28;812;-59
2024/01/25 12:33:53;;;;;;;;;;;;;;;;;;5113764;28;994;-59
2024/01/25 12:36:18;;;;;;;;;;;;;;;;;;5113530;28;903;-58
2024/01/25 12:38:43;;;;;;;;;;;;;;;;;;5113551;28;1961;-60
2024/01/25 12:41:09;;;;;;;;;;;;;;;;;;5112390;28;688;-59
2024/01/25 12:43:34;;;;;;;;;;;;;;;;;;5113578;28;1002;-62
2024/01/25 12:45:59;;;;;;;;;;;;;;;;;;5113563;28;906;-59
2024/01/25 12:48:25;;;;;;;;;;;;;;;;;;5117554;28;871;-59
2024/01/25 12:50:50;;;;;;;;;;;;;;;;;;5117525;28;966;-59
2024/01/25 12:53:15;;;;;;;;;;;;;;;;;;5117528;28;884;-59
2024/01/25 12:55:41;;;;;;;;;;;;;;;;;;5117230;28;936;-60
2024/01/25 12:58:06;;;;;;;;;;;;;;;;;;5117502;28;1902;-59
2024/01/25 13:00:32;;;;;;;;;;;;;;;;;;5117781;28;859;-59
2024/01/25 13:02:58;;;;;;;;;;;;;;;;;;5117999;28;848;-59
2024/01/25 13:05:23;;;;;;;;;;;;;;;;;;5117375;28;848;-59
2024/01/25 13:07:49;;;;;;;;;;;;;;;;;;5117059;28;832;-60
2024/01/25 13:10:14;;;;;;;;;;;;;;;;;;5117246;27;950;-59
2024/01/25 13:12:39;;;;;;;;;;;;;;;;;;5116947;28;904;-59
2024/01/25 13:15:05;;;;;;;;;;;;;;;;;;5117165;28;1034;-60
2024/01/25 13:17:31;;;;;;;;;;;;;;;;;;5116748;28;1968;-60
2024/01/25 13:19:57;;;;;;;;;;;;;;;;;;5115769;28;1087;-60
2024/01/25 13:22:24;;;;;;;;;;;;;;;;;;5117300;28;919;-60
2024/01/25 13:24:49;;;;;;;;;;;;;;;;;;5116716;28;1049;-60
2024/01/25 13:27:14;;;;;;;;;;;;;;;;;;5116848;28;983;-60
2024/01/25 13:29:39;;;;;;;;;;;;;;;;;;5116870;28;1136;-59
2024/01/25 13:32:05;;;;;;;;;;;;;;;;;;5116968;28;864;-60
2024/01/25 13:34:30;;;;;;;;;;;;;;;;;;5115691;28;1152;-59
2024/01/25 13:36:55;;;;;;;;;;;;;;;;;;5116869;28;1006;-60
2024/01/25 13:39:21;;;;;;;;;;;;;;;;;;5116381;28;1893;-60
2024/01/25 13:41:46;;;;;;;;;;;;;;;;;;5116741;28;861;-59
2024/01/25 13:44:13;;;;;;;;;;;;;;;;;;5116852;28;868;-60
2024/01/25 13:46:38;;;;;;;;;;;;;;;;;;5116571;28;990;-59
2024/01/25 13:49:04;;;;;;;;;;;;;;;;;;5117091;28;887;-60
2024/01/25 13:51:29;;;;;;;;;;;;;;;;;;5116888;28;1107;-59
2024/01/25 13:53:54;;;;;;;;;;;;;;;;;;5115174;28;2567;-59
2024/01/25 13:56:19;;;;;;;;;;;;;;;;;;5116460;27;998;-59
2024/01/25 13:58:44;;;;;;;;;;;;;;;;;;5115766;28;1906;-59
2024/01/25 14:01:10;;;;;;;;;;;;;;;;;;5116391;28;816;-59
2024/01/25 14:03:35;;;;;;;;;;;;;;;;;;5116639;28;829;-59
2024/01/25 14:06:04;;;;;;;;;;;;;;;;;;5116941;28;832;-59
2024/01/25 14:08:29;;;;;;;;;;;;;;;;;;5116519;28;869;-59
2024/01/25 14:10:54;;;;;;;;;;;;;;;;;;5116164;28;946;-59
2024/01/25 14:13:19;;;;;;;;;;;;;;;;;;5116438;27;1051;-59
2024/01/25 14:15:46;;;;;;;;;;;;;;;;;;5115913;28;785;-60
2024/01/25 14:18:11;;;;;;;;;;;;;;;;;;5115872;28;1905;-60
2024/01/25 14:20:37;;;;;;;;;;;;;;;;;;5116110;27;800;-59
2024/01/25 14:23:02;;;;;;;;;;;;;;;;;;5115888;28;904;-60
2024/01/25 14:25:28;;;;;;;;;;;;;;;;;;5115678;28;852;-60
2024/01/25 14:27:53;;;;;;;;;;;;;;;;;;5115836;28;923;-60
2024/01/25 14:30:18;;;;;;;;;;;;;;;;;;5115684;28;836;-60
2024/01/25 14:32:43;;;;;;;;;;;;;;;;;;5115553;28;812;-60
2024/01/25 14:35:09;;;;;;;;;;;;;;;;;;5115869;28;820;-60
2024/01/25 14:37:34;;;;;;;;;;;;;;;;;;5115515;28;1961;-60
2024/01/25 14:39:59;;;;;;;;;;;;;;;;;;5115689;28;927;-60
2024/01/25 14:42:25;;;;;;;;;;;;;;;;;;5115514;28;895;-60
2024/01/25 14:44:50;;;;;;;;;;;;;;;;;;5115402;28;990;-59
2024/01/25 14:47:20;;;;;;;;;;;;;;;;;;5115893;28;883;-59
2024/01/25 14:49:45;;;;;;;;;;;;;;;;;;5115469;28;824;-59
2024/01/25 14:52:10;;;;;;;;;;;;;;;;;;5115698;28;1003;-59
2024/01/25 14:54:36;;;;;;;;;;;;;;;;;;5115507;28;911;-59
2024/01/25 14:57:01;;;;;;;;;;;;;;;;;;5115237;28;979;-61
2024/01/25 14:59:26;;;;;;;;;;;;;;;;;;5113872;28;1909;-60
2024/01/25 15:01:51;;;;;;;;;;;;;;;;;;5115175;28;896;-59
2024/01/25 15:04:17;;;;;;;;;;;;;;;;;;5114924;28;974;-60
2024/01/25 15:06:43;;;;;;;;;;;;;;;;;;5113858;28;1011;-60
2024/01/25 15:09:08;;;;;;;;;;;;;;;;;;5115050;28;1676;-60
2024/01/25 15:11:34;;;;;;;;;;;;;;;;;;5115667;28;923;-60
2024/01/25 15:13:59;;;;;;;;;;;;;;;;;;5115673;28;891;-60
2024/01/25 15:16:25;;;;;;;;;;;;;;;;;;5115008;28;951;-60
2024/01/25 15:18:50;;;;;;;;;;;;;;;;;;5114680;28;1926;-60
2024/01/25 15:21:15;;;;;;;;;;;;;;;;;;5115413;28;875;-61
2024/01/25 15:23:40;;;;;;;;;;;;;;;;;;5114773;28;954;-62
2024/01/25 15:26:05;;;;;;;;;;;;;;;;;;5114787;28;1057;-61
2024/01/25 15:28:31;;;;;;;;;;;;;;;;;;5113252;28;1073;-60
2024/01/25 15:30:57;;;;;;;;;;;;;;;;;;5113989;28;982;-61
2024/01/25 15:33:22;;;;;;;;;;;;;;;;;;5114256;28;871;-60
2024/01/25 15:35:48;;;;;;;;;;;;;;;;;;5114302;28;939;-60
2024/01/25 15:38:17;;;;;;;;;;;;;;;;;;5114300;28;1956;-61
2024/01/25 15:40:42;;;;;;;;;;;;;;;;;;5114293;28;823;-61
2024/01/25 15:43:08;;;;;;;;;;;;;;;;;;5114801;28;918;-60
2024/01/25 15:45:33;;;;;;;;;;;;;;;;;;5114306;28;872;-60
2024/01/25 15:47:58;;;;;;;;;;;;;;;;;;5114389;28;965;-60
2024/01/25 15:50:23;;;;;;;;;;;;;;;;;;5114270;28;978;-63
2024/01/25 15:52:49;;;;;;;;;;;;;;;;;;5113839;28;824;-60
2024/01/25 15:55:14;;;;;;;;;;;;;;;;;;5114091;28;1032;-60
2024/01/25 15:57:39;;;;;;;;;;;;;;;;;;5114374;28;1898;-60
2024/01/25 16:00:05;;;;;;;;;;;;;;;;;;5112363;28;1167;-60
2024/01/25 16:02:30;;;;;;;;;;;;;;;;;;5113876;28;1358;-60
2024/01/25 16:04:55;;;;;;;;;;;;;;;;;;5114691;28;990;-60
2024/01/25 16:07:20;;;;;;;;;;;;;;;;;;5114960;28;832;-61
2024/01/25 16:09:46;;;;;;;;;;;;;;;;;;5114156;28;836;-60
2024/01/25 16:12:11;;;;;;;;;;;;;;;;;;5114321;28;857;-61
2024/01/25 16:14:37;;;;;;;;;;;;;;;;;;5114608;28;860;-61
2024/01/25 16:17:02;;;;;;;;;;;;;;;;;;5115125;28;858;-61
2024/01/25 16:19:27;;;;;;;;;;;;;;;;;;5114367;28;1886;-60
2024/01/25 16:21:53;;;;;;;;;;;;;;;;;;5113716;28;808;-61
2024/01/25 16:24:18;;;;;;;;;;;;;;;;;;5114155;28;894;-60
2024/01/25 16:26:44;;;;;;;;;;;;;;;;;;5114643;28;911;-60
2024/01/25 16:29:09;;;;;;;;;;;;;;;;;;5114294;28;1041;-60
2024/01/25 16:31:34;;;;;;;;;;;;;;;;;;5114965;28;848;-61
2024/01/25 16:34:00;;;;;;;;;;;;;;;;;;5114941;28;887;-60
2024/01/25 16:36:25;;;;;;;;;;;;;;;;;;5114733;28;883;-60
2024/01/25 16:38:50;;;;;;;;;;;;;;;;;;5113505;28;1890;-61
2024/01/25 16:41:16;;;;;;;;;;;;;;;;;;5114272;28;884;-62
2024/01/25 16:43:41;;;;;;;;;;;;;;;;;;5114151;28;1097;-61
2024/01/25 16:46:06;;;;;;;;;;;;;;;;;;5115069;28;824;-62
2024/01/25 16:48:31;;;;;;;;;;;;;;;;;;5114508;28;875;-62
2024/01/25 16:50:57;;;;;;;;;;;;;;;;;;5113385;28;1486;-61
2024/01/25 16:53:22;;;;;;;;;;;;;;;;;;5114576;28;1002;-62
2024/01/25 16:55:49;;;;;;;;;;;;;;;;;;5112862;28;1202;-62
2024/01/25 16:58:14;;;;;;;;;;;;;;;;;;5114036;28;1878;-62
2024/01/25 17:00:39;;;;;;;;;;;;;;;;;;5113844;28;1337;-62
2024/01/25 17:03:05;;;;;;;;;;;;;;;;;;5112874;28;891;-60